Time;durP1;ratioP1;P1;durP2;ratioP2;P2;SDS_P1;SDS_P2;PMS_P1;PMS_P2;Temp;Humidity;BMP_temperature;BMP_pressure;BME280_temperature;BME280_humidity;BME280_pressure;Samples;Min_cycle;Max_cycle;Signal;HPM_P1;HPM_P2
2022/05/21 00:00:26;;;;;;;7.97;7.67;;;;;;;11.78;54.62;93262.59;5027960;28;20216;-74
2022/05/21 00:02:53;;;;;;;7.80;7.50;;;;;;;11.70;54.12;93257.16;5028587;28;20244;-73
2022/05/21 00:05:21;;;;;;;8.50;8.20;;;;;;;11.75;53.05;93262.34;5028925;28;20297;-73
2022/05/21 00:07:46;;;;;;;7.87;7.57;;;;;;;11.61;52.97;93256.88;5029174;28;20224;-74
2022/05/21 00:10:14;;;;;;;8.80;8.30;;;;;;;11.63;53.00;93270.50;5028041;28;20207;-74
2022/05/21 00:12:41;;;;;;;8.07;7.67;;;;;;;11.78;53.39;93262.59;5028047;28;20194;-74
2022/05/21 00:15:07;;;;;;;8.00;7.60;;;;;;;11.71;53.03;93258.69;5028648;28;20202;-74
2022/05/21 00:17:33;;;;;;;7.83;7.43;;;;;;;11.51;53.97;93256.16;5028774;28;20238;-74
2022/05/21 00:20:00;;;;;;;7.97;7.67;;;;;;;11.50;53.57;93251.97;5027255;28;20202;-72
2022/05/21 00:22:26;;;;;;;8.67;8.27;;;;;;;11.28;54.42;93241.88;5027787;28;20204;-73
2022/05/21 00:24:51;;;;;;;7.93;7.63;;;;;;;11.29;54.12;93243.41;5028420;28;20195;-74
2022/05/21 00:27:17;;;;;;;8.73;8.33;;;;;;;11.42;53.47;93255.94;5027473;28;20307;-74
2022/05/21 00:29:42;;;;;;;8.17;7.87;;;;;;;11.28;54.16;93240.00;5028781;28;20179;-73
2022/05/21 00:32:08;;;;;;;8.63;8.13;;;;;;;11.11;54.34;93239.56;5026507;28;21196;-73
2022/05/21 00:34:34;;;;;;;7.83;7.50;;;;;;;11.18;54.02;93232.22;5027699;28;20642;-74
2022/05/21 00:37:00;;;;;;;7.87;7.57;;;;;;;11.16;53.49;93239.53;5026483;28;20242;-74
2022/05/21 00:39:26;;;;;;;8.03;7.73;;;;;;;11.06;54.73;93233.56;5030602;28;20191;-74
2022/05/21 00:41:51;;;;;;;7.73;7.53;;;;;;;11.05;52.02;93232.78;5030101;28;20319;-73
2022/05/21 00:44:17;;;;;;;7.23;7.03;;;;;;;10.85;52.12;93232.81;5032699;28;20198;-73
2022/05/21 00:46:45;;;;;;;8.30;7.80;;;;;;;11.01;52.14;93225.75;5032124;28;20217;-74
2022/05/21 00:49:16;;;;;;;7.97;7.67;;;;;;;11.15;50.64;93217.09;5031416;28;20191;-73
2022/05/21 00:51:57;;;;;;;7.20;7.00;;;;;;;11.02;51.91;93222.84;5031996;28;20241;-73
2022/05/21 00:54:28;;;;;;;7.60;7.40;;;;;;;10.85;53.85;93201.47;5032359;28;20225;-73
2022/05/21 00:57:05;;;;;;;7.70;7.50;;;;;;;10.94;52.58;93215.56;5031612;28;20275;-74
2022/05/21 00:59:51;;;;;;;8.27;7.77;;;;;;;10.74;52.32;93193.94;5032949;28;20194;-74
2022/05/21 01:02:27;;;;;;;7.37;7.07;;;;;;;10.68;52.50;93201.00;5028360;28;20262;-74
2022/05/21 01:04:56;;;;;;;7.87;7.67;;;;;;;10.63;52.63;93208.84;5032186;28;20194;-74
2022/05/21 01:07:23;;;;;;;7.57;7.33;;;;;;;10.70;51.78;93217.19;5032306;28;20210;-74
2022/05/21 01:09:52;;;;;;;8.33;8.03;;;;;;;10.93;52.52;93202.75;5032766;28;20198;-74
2022/05/21 01:12:25;;;;;;;8.20;7.90;;;;;;;10.78;51.54;93215.88;5030651;28;20214;-74
2022/05/21 01:14:55;;;;;;;8.23;7.93;;;;;;;10.86;51.12;93208.25;5032583;28;20195;-73
2022/05/21 01:17:21;;;;;;;8.07;7.80;;;;;;;11.05;52.05;93211.13;5029434;28;20215;-73
2022/05/21 01:20:05;;;;;;;7.83;7.63;;;;;;;10.70;51.80;93203.34;5031890;28;20207;-72
2022/05/21 01:22:39;;;;;;;7.80;7.60;;;;;;;10.75;51.40;93201.53;5029078;28;20241;-74
2022/05/21 01:25:05;;;;;;;8.20;7.90;;;;;;;10.78;52.61;93190.53;5031765;28;20192;-73
2022/05/21 01:27:31;;;;;;;8.37;7.97;;;;;;;10.44;53.18;93188.78;5032329;28;20234;-74
2022/05/21 01:30:00;;;;;;;8.33;8.03;;;;;;;10.59;49.63;93204.41;5031228;28;20212;-73
2022/05/21 01:32:25;;;;;;;7.67;7.37;;;;;;;10.54;53.49;93184.31;5032117;28;20175;-74
2022/05/21 01:34:51;;;;;;;8.57;8.27;;;;;;;10.69;52.14;93207.00;5031457;28;20225;-73
2022/05/21 01:37:17;;;;;;;9.17;8.47;;;;;;;10.68;52.49;93195.78;5030635;28;20257;-73
2022/05/21 01:39:42;;;;;;;8.47;8.17;;;;;;;10.56;51.58;93197.91;5031514;28;20242;-74
2022/05/21 01:42:08;;;;;;;8.27;7.97;;;;;;;10.79;49.84;93199.16;5030983;28;20223;-74
2022/05/21 01:44:40;;;;;;;8.20;7.80;;;;;;;10.78;51.58;93190.53;5032416;28;20282;-73
2022/05/21 01:47:12;;;;;;;8.30;8.00;;;;;;;10.87;52.52;93194.16;5030103;28;20234;-73
2022/05/21 01:49:39;;;;;;;8.07;7.67;;;;;;;10.83;51.75;93198.34;5030596;28;20198;-74
2022/05/21 01:52:06;;;;;;;7.67;7.47;;;;;;;10.87;53.45;93196.78;5030384;28;20309;-74
2022/05/21 01:54:33;;;;;;;7.80;7.50;;;;;;;10.77;53.15;93188.97;5030995;28;20226;-74
2022/05/21 01:57:00;;;;;;;8.53;8.13;;;;;;;10.77;54.54;93194.19;5030604;28;20255;-73
2022/05/21 01:59:26;;;;;;;8.40;8.10;;;;;;;10.69;53.91;93197.34;5031148;28;20195;-74
2022/05/21 02:01:51;;;;;;;9.17;8.43;;;;;;;10.57;53.52;93199.44;5028824;28;20229;-74
2022/05/21 02:04:18;;;;;;;8.30;8.00;;;;;;;10.23;54.08;93201.03;5031302;28;20202;-74
2022/05/21 02:06:43;;;;;;;8.03;7.73;;;;;;;10.26;55.68;93192.69;5029983;28;20222;-73
2022/05/21 02:09:10;;;;;;;8.37;8.07;;;;;;;10.40;55.89;93191.13;5028799;28;20222;-74
2022/05/21 02:11:36;;;;;;;8.73;8.43;;;;;;;10.38;57.43;93179.38;5030875;28;20226;-73
2022/05/21 02:14:01;;;;;;;7.97;7.67;;;;;;;10.42;57.58;93175.19;5030343;28;20262;-73
2022/05/21 02:16:28;;;;;;;8.10;7.70;;;;;;;10.50;57.87;93172.84;5044068;28;20215;-74
2022/05/21 02:18:54;;;;;;;8.70;8.33;;;;;;;10.33;58.49;93150.69;5030686;28;20190;-73
2022/05/21 02:21:19;;;;;;;8.07;7.77;;;;;;;10.36;58.99;93153.56;5030675;28;20230;-73
2022/05/21 02:23:45;;;;;;;8.23;7.93;;;;;;;10.13;58.29;93161.13;5030979;28;20285;-73
2022/05/21 02:26:11;;;;;;;8.37;8.07;;;;;;;10.05;58.57;93149.38;5028876;28;20285;-73
2022/05/21 02:28:36;;;;;;;8.80;8.40;;;;;;;10.18;58.48;93154.06;5030569;28;20190;-73
2022/05/21 02:31:01;;;;;;;9.03;8.70;;;;;;;10.07;59.50;93133.47;5030271;28;20234;-74
2022/05/21 02:33:27;;;;;;;8.27;7.97;;;;;;;10.19;58.04;93154.88;5030468;28;20904;-74
2022/05/21 02:35:52;;;;;;;9.07;8.57;;;;;;;9.98;56.92;93153.28;5028279;28;20272;-74
2022/05/21 02:41:02;;;;;;;9.43;8.97;;;;;;;10.12;57.42;93141.28;5028826;28;20218;-73
2022/05/21 02:43:29;;;;;;;8.50;8.20;;;;;;;9.90;58.33;93141.53;5030369;28;20214;-73
2022/05/21 02:45:55;;;;;;;9.37;8.97;;;;;;;10.02;56.34;93152.50;5029653;28;20227;-73
2022/05/21 02:48:20;;;;;;;9.23;8.80;;;;;;;10.25;56.57;93161.66;5030441;28;20226;-73
2022/05/21 02:50:46;;;;;;;9.57;9.10;;;;;;;10.29;57.99;93147.81;5028409;28;20238;-73
2022/05/21 02:53:18;;;;;;;8.83;8.43;;;;;;;10.40;58.25;93157.19;5030566;28;20270;-73
2022/05/21 02:55:44;;;;;;;9.70;9.10;;;;;;;10.36;58.80;93156.16;5029318;28;20231;-73
2022/05/21 02:58:10;;;;;;;8.73;8.43;;;;;;;10.28;59.91;93135.03;5030125;28;20202;-74
2022/05/21 03:00:35;;;;;;;8.33;7.97;;;;;;;10.46;59.79;93150.16;5029390;28;20222;-73
2022/05/21 03:03:01;;;;;;;9.33;8.97;;;;;;;10.35;59.64;93148.59;5028771;28;20245;-73
2022/05/21 03:05:29;;;;;;;8.57;8.13;;;;;;;10.40;58.66;93166.84;5028464;28;20261;-73
2022/05/21 03:07:55;;;;;;;8.23;7.93;;;;;;;10.84;58.87;93162.56;5030305;28;20191;-73
2022/05/21 03:10:23;;;;;;;7.33;6.93;;;;;;;11.53;57.56;93178.22;5029932;28;20241;-74
2022/05/21 03:12:48;;;;;;;8.30;8.00;;;;;;;11.48;54.45;93186.09;5028122;28;20747;-73
2022/05/21 03:15:14;;;;;;;7.77;7.47;;;;;;;12.26;52.68;93190.31;5030043;28;20234;-74
2022/05/21 03:17:40;;;;;;;8.50;8.20;;;;;;;13.32;49.85;93201.38;5029048;28;20179;-73
2022/05/21 03:20:06;;;;;;;9.10;8.70;;;;;;;13.31;50.07;93199.03;5029215;28;20185;-74
2022/05/21 03:22:32;;;;;;;9.17;8.57;;;;;;;13.49;50.67;93191.19;5028806;28;20301;-74
2022/05/21 03:24:58;;;;;;;9.90;9.10;;;;;;;14.10;49.63;93191.91;5027972;28;20191;-74
2022/05/21 03:27:24;;;;;;;8.83;8.33;;;;;;;15.18;46.78;93178.28;5029362;28;20185;-74
2022/05/21 03:29:49;;;;;;;8.73;8.23;;;;;;;14.70;47.74;93171.81;5027708;28;20191;-74
2022/05/21 03:32:15;;;;;;;8.33;7.93;;;;;;;14.31;49.52;93174.81;5028572;28;20218;-74
2022/05/21 03:34:41;;;;;;;8.50;7.90;;;;;;;14.08;50.94;93159.91;5029860;28;20190;-74
2022/05/21 03:37:07;;;;;;;7.80;7.50;;;;;;;14.73;49.56;93154.66;5027851;28;20306;-74
2022/05/21 03:39:32;;;;;;;8.53;8.03;;;;;;;14.33;49.72;93162.16;5027582;28;20182;-74
2022/05/21 03:41:58;;;;;;;8.43;8.13;;;;;;;14.02;51.96;93161.03;5028704;28;20310;-75
2022/05/21 03:44:25;;;;;;;8.10;7.80;;;;;;;13.90;51.39;93168.56;5028630;28;20206;-74
2022/05/21 03:46:51;;;;;;;7.57;7.27;;;;;;;14.00;51.87;93144.03;5026334;28;20215;-74
2022/05/21 03:49:17;;;;;;;8.50;8.10;;;;;;;13.63;54.21;93170.28;5027790;28;20209;-74
2022/05/21 03:51:43;;;;;;;8.17;7.83;;;;;;;13.47;54.25;93164.44;5028166;28;20257;-73
2022/05/21 03:54:09;;;;;;;8.43;8.13;;;;;;;13.93;53.59;93175.88;5026780;28;20174;-74
2022/05/21 03:56:34;;;;;;;7.03;6.73;;;;;;;13.95;52.54;93173.75;5027817;28;20237;-73
2022/05/21 03:58:59;;;;;;;8.57;8.17;;;;;;;13.89;52.55;93177.53;5028443;28;20195;-72
2022/05/21 04:01:25;;;;;;;8.70;8.30;;;;;;;13.43;55.10;93189.66;5027539;28;20220;-74
2022/05/21 04:03:54;;;;;;;8.20;7.80;;;;;;;13.28;54.14;93178.59;5028668;28;20238;-73
2022/05/21 04:06:21;;;;;;;8.87;8.37;;;;;;;13.16;56.71;93199.19;5026502;28;20226;-73
2022/05/21 04:08:47;;;;;;;8.37;8.00;;;;;;;13.18;56.54;93197.84;5027007;28;20301;-73
2022/05/21 04:11:12;;;;;;;9.27;8.87;;;;;;;13.11;54.38;93196.59;5027038;28;20238;-73
2022/05/21 04:13:37;;;;;;;8.50;8.17;;;;;;;13.17;53.83;93203.38;5026581;28;20186;-73
2022/05/21 04:16:03;;;;;;;8.33;8.03;;;;;;;13.23;53.36;93202.25;5026743;28;20261;-76
2022/05/21 04:18:29;;;;;;;8.87;8.47;;;;;;;13.39;54.69;93201.78;5026501;28;20178;-78
2022/05/21 04:20:54;;;;;;;8.27;7.87;;;;;;;13.56;53.56;93202.09;5025831;28;20234;-79
2022/05/21 04:23:19;;;;;;;13.10;12.30;;;;;;;13.81;51.74;93199.16;5023413;28;20226;-78
2022/05/21 04:25:46;;;;;;;9.17;8.67;;;;;;;13.82;52.47;93190.22;5026898;28;20222;-78
2022/05/21 04:28:12;;;;;;;9.63;9.13;;;;;;;14.15;51.57;93186.59;5026253;28;20210;-80
2022/05/21 04:30:38;;;;;;;10.37;9.40;;;;;;;13.70;53.55;93149.69;5025547;28;20296;-80
2022/05/21 04:33:03;;;;;;;8.90;8.47;;;;;;;13.66;55.69;93198.56;5027100;28;20187;-75
2022/05/21 04:38:14;;;;;;;10.73;10.13;;;;;;;14.05;54.63;93206.97;5025009;28;20190;-76
2022/05/21 04:40:39;;;;;;;9.43;8.97;;;;;;;14.25;52.83;93199.59;5025541;28;20226;-77
2022/05/21 04:43:05;;;;;;;9.37;8.67;;;;;;;14.31;53.83;93201.09;5026378;28;20213;-79
2022/05/21 04:45:30;;;;;;;8.17;7.77;;;;;;;14.66;53.11;93201.56;5025397;28;20227;-85
2022/05/21 04:47:55;;;;;;;9.40;8.90;;;;;;;14.88;52.30;93199.84;5026497;28;20197;-80
2022/05/21 04:50:21;;;;;;;9.67;9.07;;;;;;;14.91;52.42;93193.25;5024774;28;20218;-76
2022/05/21 04:52:46;;;;;;;9.10;8.60;;;;;;;15.02;52.12;93197.28;5024900;28;20187;-76
2022/05/21 04:55:12;;;;;;;10.30;9.47;;;;;;;14.76;54.69;93207.44;5025421;28;20262;-77
2022/05/21 04:57:37;;;;;;;9.97;9.37;;;;;;;15.09;54.38;93216.06;5026258;28;20182;-75
2022/05/21 05:00:05;;;;;;;8.80;8.20;;;;;;;14.95;54.49;93195.00;5027591;28;20187;-79
2022/05/21 05:02:31;;;;;;;9.53;8.90;;;;;;;16.09;53.02;93219.34;5026618;28;20314;-78
2022/05/21 05:04:57;;;;;;;10.03;8.40;;;;;;;16.19;52.16;93218.34;5027959;28;20194;-76
2022/05/21 05:07:23;;;;;;;9.83;9.23;;;;;;;16.00;52.69;93210.56;5026576;28;20207;-76
2022/05/21 05:09:49;;;;;;;8.97;8.50;;;;;;;15.42;54.02;93207.84;5028312;28;20203;-79
2022/05/21 05:12:16;;;;;;;8.33;7.77;;;;;;;15.72;53.78;93223.00;5024707;28;20276;-82
2022/05/21 05:14:42;;;;;;;9.90;9.30;;;;;;;15.59;54.03;93205.38;5023344;28;20214;-80
2022/05/21 05:17:11;;;;;;;8.57;8.17;;;;;;;15.47;52.81;93206.97;5026270;28;20234;-81
2022/05/21 05:19:37;;;;;;;10.43;9.83;;;;;;;16.38;52.31;93219.72;5025474;28;20183;-82
2022/05/21 05:22:03;;;;;;;10.37;9.73;;;;;;;18.26;47.05;93217.94;5025823;28;20219;-81
2022/05/21 05:24:28;;;;;;;10.00;9.20;;;;;;;18.54;44.68;93221.84;5026749;28;20183;-82
2022/05/21 05:26:54;;;;;;;10.27;8.73;;;;;;;18.08;45.98;93213.72;5028858;28;20318;-81
2022/05/21 05:29:20;;;;;;;9.53;9.03;;;;;;;17.47;48.91;93219.94;5030170;28;20269;-80
2022/05/21 05:31:45;;;;;;;9.57;8.90;;;;;;;18.92;46.44;93220.13;5029723;28;20214;-85
2022/05/21 05:34:11;;;;;;;11.03;10.03;;;;;;;18.92;45.81;93215.59;5029525;28;20187;-78
2022/05/21 05:36:36;;;;;;;10.90;10.10;;;;;;;18.28;47.83;93213.13;5030468;28;20234;-80
2022/05/21 05:39:02;;;;;;;11.13;10.17;;;;;;;19.04;45.48;93199.06;5030658;28;20175;-80
2022/05/21 05:41:28;;;;;;;10.90;8.70;;;;;;;21.97;39.37;93212.88;5030006;28;20226;-82
2022/05/21 05:43:56;;;;;;;8.73;8.27;;;;;;;26.73;30.52;93226.63;5029862;28;20217;-86
2022/05/21 05:46:23;;;;;;;8.30;7.80;;;;;;;28.48;26.52;93212.66;5029152;28;20349;-79
2022/05/21 05:48:49;;;;;;;8.52;7.93;;;;;;;31.88;23.07;93233.53;5030421;28;20184;-76
2022/05/21 05:51:16;;;;;;;8.82;8.05;;;;;;;33.54;20.29;93209.13;5029757;28;20237;-77
2022/05/21 05:53:43;;;;;;;8.75;8.13;;;;;;;33.74;20.79;93243.31;5029602;28;20310;-80
2022/05/21 05:56:09;;;;;;;9.15;8.02;;;;;;;34.10;19.92;93249.00;5029796;28;20297;-77
2022/05/21 06:01:20;;;;;;;8.60;7.78;;;;;;;34.11;19.12;93236.97;5029958;28;20244;-77
2022/05/21 06:03:46;;;;;;;8.30;7.72;;;;;;;34.03;19.55;93230.13;5030236;28;20275;-81
2022/05/21 06:06:12;;;;;;;9.48;8.77;;;;;;;35.74;17.59;93233.66;5029028;28;20206;-77
2022/05/21 06:08:37;;;;;;;9.52;8.63;;;;;;;35.89;17.42;93218.59;5029200;28;20347;-78
2022/05/21 06:11:03;;;;;;;8.82;8.02;;;;;;;30.84;22.86;93198.50;5029890;28;20257;-79
2022/05/21 06:13:28;;;;;;;10.73;9.70;;;;;;;32.87;20.76;93212.59;5030674;28;20187;-82
2022/05/21 06:15:54;;;;;;;9.57;8.65;;;;;;;35.15;18.20;93227.47;5029758;28;20294;-80
2022/05/21 06:18:22;;;;;;;9.02;8.02;;;;;;;35.71;18.02;93217.44;5029274;28;20250;-85
2022/05/21 06:20:49;;;;;;;7.55;6.90;;;;;;;36.30;17.68;93218.06;5028676;28;20235;-80
2022/05/21 06:23:14;;;;;;;9.00;7.43;;;;;;;35.69;17.59;93226.00;5029977;28;20225;-83
2022/05/21 06:25:40;;;;;;;9.95;7.53;;;;;;;36.16;16.95;93210.22;5028577;28;20226;-84
2022/05/21 06:28:06;;;;;;;8.90;7.13;;;;;;;33.33;20.05;93207.44;5029183;28;20179;-82
2022/05/21 06:30:34;;;;;;;7.65;7.10;;;;;;;34.57;19.24;93212.59;5027890;28;20230;-84
2022/05/21 06:33:30;;;;;;;8.05;6.75;;;;;;;34.30;19.06;93208.41;5028941;28;20259;-79
2022/05/21 06:36:11;;;;;;;8.48;7.65;;;;;;;30.83;23.45;93188.88;5027468;28;20238;-82
2022/05/21 06:38:38;;;;;;;8.57;7.72;;;;;;;28.18;26.59;93169.84;5027682;28;20206;-78
2022/05/21 06:41:03;;;;;;;7.95;7.40;;;;;;;25.91;29.88;93160.72;5026099;28;20253;-80
2022/05/21 06:43:29;;;;;;;9.05;8.13;;;;;;;23.02;35.10;93151.25;5028039;28;20216;-77
2022/05/21 06:45:54;;;;;;;9.45;8.48;;;;;;;21.78;39.94;93138.22;5028918;28;20239;-83
2022/05/21 06:48:20;;;;;;;9.57;8.93;;;;;;;22.36;37.70;93146.75;5029131;28;20191;-87
2022/05/21 06:50:46;;;;;;;9.07;8.48;;;;;;;20.79;41.48;93138.75;5028175;28;20243;-78
2022/05/21 06:53:12;;;;;;;9.07;8.43;;;;;;;20.09;42.40;93123.75;5028063;28;20219;-78
2022/05/21 06:55:39;;;;;;;9.18;8.57;;;;;;;20.40;42.46;93137.41;5028444;28;20226;-80
2022/05/21 06:58:04;;;;;;;9.85;9.05;;;;;;;20.60;42.34;93136.59;5027655;28;20193;-80
2022/05/21 07:00:30;;;;;;;9.45;8.85;;;;;;;20.03;45.15;93132.97;5027968;28;20249;-81
2022/05/21 07:02:55;;;;;;;9.35;8.75;;;;;;;20.30;42.35;93103.31;5028502;28;20232;-83
2022/05/21 07:08:15;;;;;;;9.10;8.60;;;;;;;20.03;42.94;93130.34;5029031;28;20209;-84
2022/05/21 07:10:41;;;;;;;8.87;8.27;;;;;;;19.34;44.47;93099.31;5026787;28;20238;-82
2022/05/21 07:13:06;;;;;;;9.10;8.23;;;;;;;19.53;43.74;93111.06;5047377;28;20265;-81
2022/05/21 07:15:32;;;;;;;8.57;7.97;;;;;;;19.49;44.01;93101.41;5030257;28;20681;-79
2022/05/21 07:18:00;;;;;;;8.87;7.97;;;;;;;19.34;44.65;93115.97;5029776;28;20255;-81
2022/05/21 07:20:26;;;;;;;11.77;9.30;;;;;;;19.31;45.08;93119.28;5027570;28;20227;-84
2022/05/21 07:22:52;;;;;;;9.80;9.10;;;;;;;19.66;46.54;93123.25;5031161;28;20243;-82
2022/05/21 07:25:24;;;;;;;8.90;8.30;;;;;;;20.05;44.41;93122.84;5028824;28;20231;-75
2022/05/21 07:27:51;;;;;;;8.50;7.80;;;;;;;20.24;42.65;93109.94;5028589;28;20196;-73
2022/05/21 07:30:17;;;;;;;9.33;8.73;;;;;;;20.15;43.90;93111.88;5027906;28;20242;-73
2022/05/21 07:32:44;;;;;;;9.20;8.60;;;;;;;20.01;43.40;93098.09;5027309;28;20201;-78
2022/05/21 07:35:13;;;;;;;8.53;7.80;;;;;;;19.86;45.63;93101.31;5027863;28;20179;-75
2022/05/21 07:37:39;;;;;;;9.47;7.77;;;;;;;19.70;46.01;93099.56;5029171;28;20209;-75
2022/05/21 07:40:05;;;;;;;9.40;8.73;;;;;;;20.10;43.90;93093.50;5028823;28;20249;-76
2022/05/21 07:42:32;;;;;;;9.40;8.90;;;;;;;20.29;43.88;93085.09;5029197;28;20385;-75
2022/05/21 07:44:57;;;;;;;8.07;7.57;;;;;;;20.76;43.03;93099.59;5027842;28;20189;-74
2022/05/21 07:47:24;;;;;;;8.53;7.93;;;;;;;20.44;42.44;93082.59;5028531;28;20189;-75
2022/05/21 07:49:56;;;;;;;9.00;7.87;;;;;;;20.49;42.08;93102.84;5028009;28;20189;-75
2022/05/21 07:52:27;;;;;;;9.23;8.33;;;;;;;20.42;43.11;93102.59;5026595;28;20240;-75
2022/05/21 07:54:53;;;;;;;9.00;8.50;;;;;;;20.40;44.75;93110.88;5028594;28;20192;-73
2022/05/21 07:57:19;;;;;;;8.67;8.07;;;;;;;20.48;42.95;93102.06;5027789;28;20199;-74
2022/05/21 07:59:44;;;;;;;9.70;8.97;;;;;;;20.69;41.81;93100.13;5029081;28;20190;-74
2022/05/21 08:02:12;;;;;;;8.90;8.40;;;;;;;20.53;41.25;93101.06;5028791;28;20245;-75
2022/05/21 08:04:38;;;;;;;9.70;8.80;;;;;;;20.88;41.16;93088.22;5028043;28;20224;-74
2022/05/21 08:07:04;;;;;;;8.83;8.33;;;;;;;20.73;42.43;93085.09;5029126;28;20232;-74
2022/05/21 08:09:29;;;;;;;8.47;8.00;;;;;;;20.56;42.51;93082.63;5028040;28;20196;-74
2022/05/21 08:11:55;;;;;;;8.77;8.17;;;;;;;21.01;41.47;93065.94;5028802;28;20290;-74
2022/05/21 08:14:21;;;;;;;9.17;8.47;;;;;;;20.93;39.94;93075.53;5026766;28;20285;-74
2022/05/21 08:16:47;;;;;;;9.43;8.63;;;;;;;20.81;40.30;93082.69;5028364;28;20231;-74
2022/05/21 08:19:12;;;;;;;8.80;8.30;;;;;;;20.70;44.17;93067.19;5027786;28;20182;-74
2022/05/21 08:21:39;;;;;;;8.80;8.23;;;;;;;20.79;41.30;93058.34;5026562;28;20236;-74
2022/05/21 08:26:57;;;;;;;8.40;7.90;;;;;;;20.81;41.38;93056.16;5028347;28;20253;-74
2022/05/21 08:29:34;;;;;;;7.83;7.43;;;;;;;21.01;40.34;93060.63;5026051;28;20257;-74
2022/05/21 08:32:01;;;;;;;8.63;8.17;;;;;;;21.23;39.77;93068.16;5028542;28;20229;-74
2022/05/21 08:34:27;;;;;;;9.45;8.80;;;;;;;21.37;41.95;93068.59;5029103;28;20188;-73
2022/05/21 08:36:53;;;;;;;9.60;9.00;;;;;;;21.37;41.56;93069.34;5027244;28;20229;-75
2022/05/21 08:39:20;;;;;;;8.63;8.13;;;;;;;21.48;41.95;93072.34;5029359;28;20216;-74
2022/05/21 08:41:53;;;;;;;9.60;8.75;;;;;;;21.84;40.04;93075.75;5027637;28;20223;-74
2022/05/21 08:44:52;;;;;;;8.73;8.10;;;;;;;21.71;38.37;93060.88;5028924;28;20195;-74
2022/05/21 08:47:27;;;;;;;9.10;8.40;;;;;;;21.52;40.50;93075.88;5026242;28;20257;-74
2022/05/21 08:50:01;;;;;;;7.82;7.40;;;;;;;21.63;39.27;93069.00;5028491;28;20183;-75
2022/05/21 08:52:37;;;;;;;9.43;8.77;;;;;;;21.78;39.55;93063.00;5028907;28;20210;-74
2022/05/21 08:55:06;;;;;;;11.13;8.20;;;;;;;21.90;41.64;93069.06;5027929;28;20291;-74
2022/05/21 08:57:45;;;;;;;9.45;8.75;;;;;;;21.72;39.72;93064.31;5028653;28;20193;-74
2022/05/21 09:00:16;;;;;;;8.27;7.78;;;;;;;22.03;40.19;93065.28;5027116;28;20188;-73
2022/05/21 09:02:42;;;;;;;9.05;8.40;;;;;;;22.19;38.50;93052.78;5031957;28;20239;-74
2022/05/21 09:05:11;;;;;;;8.57;7.88;;;;;;;22.10;38.39;93059.38;5032102;28;20247;-75
2022/05/21 09:07:51;;;;;;;9.23;8.35;;;;;;;22.06;39.81;93069.91;5032066;28;20195;-74
2022/05/21 09:10:46;;;;;;;9.05;8.52;;;;;;;22.06;37.85;93058.50;5031003;28;20241;-74
2022/05/21 09:13:20;;;;;;;8.98;8.32;;;;;;;22.26;38.64;93062.09;5032683;28;20218;-74
2022/05/21 09:18:33;;;;;;;10.18;9.18;;;;;;;22.29;38.75;93066.75;5030788;28;20296;-75
2022/05/21 09:21:00;;;;;;;9.18;8.57;;;;;;;22.36;39.02;93066.91;5029958;28;20232;-74
2022/05/21 09:23:45;;;;;;;9.00;8.13;;;;;;;22.65;39.45;93063.91;5030706;28;20223;-74
2022/05/21 09:26:11;;;;;;;9.20;8.60;;;;;;;22.65;38.31;93051.38;5029946;28;20245;-85
2022/05/21 09:28:38;;;;;;;8.75;8.25;;;;;;;22.67;38.40;93065.13;5032222;28;20181;-80
2022/05/21 09:31:05;;;;;;;9.45;8.82;;;;;;;22.93;38.24;93056.63;5031054;28;20232;-80
2022/05/21 09:33:40;;;;;;;10.80;9.80;;;;;;;23.15;39.90;93054.16;5029857;28;20191;-81
2022/05/21 09:36:06;;;;;;;9.40;8.60;;;;;;;23.19;37.19;93059.56;5032113;28;20236;-81
2022/05/21 09:38:56;;;;;;;8.95;8.32;;;;;;;23.13;38.03;93063.63;5032300;28;20185;-82
2022/05/21 09:41:27;;;;;;;9.20;8.60;;;;;;;22.93;35.84;93053.97;5030620;28;20235;-82
2022/05/21 09:47:25;;;;;;;9.63;8.68;;;;;;;23.43;36.96;93035.41;5028894;28;20223;-86
2022/05/21 09:50:05;;;;;;;9.57;8.80;;;;;;;23.65;36.51;93046.19;5030708;28;20226;-79
2022/05/21 09:52:33;;;;;;;9.52;8.82;;;;;;;23.33;36.02;93025.28;5029302;28;20789;-81
2022/05/21 09:54:59;;;;;;;8.77;8.10;;;;;;;23.37;35.92;93037.56;5030556;28;20199;-81
2022/05/21 09:57:33;;;;;;;9.25;8.57;;;;;;;23.93;34.49;93050.56;5028158;28;20189;-81
2022/05/21 10:00:05;;;;;;;9.05;8.38;;;;;;;24.05;35.41;93047.81;5028545;28;20191;-79
2022/05/21 10:03:02;;;;;;;8.82;8.25;;;;;;;24.36;34.64;93045.00;5029718;28;20251;-81
2022/05/21 10:05:40;;;;;;;8.05;7.55;;;;;;;24.58;33.47;93046.94;5029136;28;20295;-80
2022/05/21 10:11:15;;;;;;;9.02;8.52;;;;;;;24.47;30.67;93040.63;5029644;28;20241;-80
2022/05/21 10:13:44;;;;;;;8.10;7.70;;;;;;;24.63;31.05;93027.94;5029099;28;20211;-82
2022/05/21 10:16:51;;;;;;;8.70;8.05;;;;;;;24.77;31.38;93022.88;5028227;28;20228;-80
2022/05/21 10:19:43;;;;;;;9.05;8.48;;;;;;;24.69;32.87;93019.31;5028744;28;20217;-75
2022/05/21 10:22:21;;;;;;;8.07;7.53;;;;;;;24.91;30.00;93018.56;5027226;28;20248;-76
2022/05/21 10:24:52;;;;;;;8.35;7.75;;;;;;;25.06;29.07;93017.66;5030004;28;20186;-76
2022/05/21 10:27:42;;;;;;;7.68;7.18;;;;;;;24.99;29.31;93014.09;5027983;28;20237;-75
2022/05/21 10:30:14;;;;;;;8.32;7.82;;;;;;;24.56;29.69;93012.56;5027277;28;20188;-76
2022/05/21 10:32:57;;;;;;;7.32;6.95;;;;;;;24.86;30.13;93004.72;5029183;28;20246;-73
2022/05/21 10:35:25;;;;;;;8.30;7.80;;;;;;;25.02;29.53;92998.13;5028012;28;20264;-72
2022/05/21 10:38:08;;;;;;;7.95;7.47;;;;;;;25.03;29.41;92998.88;5028274;28;20189;-72
2022/05/21 10:40:40;;;;;;;7.70;7.20;;;;;;;25.43;25.55;93001.84;5028015;28;20245;-74
2022/05/21 10:43:35;;;;;;;6.88;6.47;;;;;;;25.26;27.10;92997.72;5029286;28;20209;-75
2022/05/21 10:46:15;;;;;;;8.10;7.50;;;;;;;25.13;27.34;92979.59;5052368;28;20236;-75
2022/05/21 10:48:59;;;;;;;7.60;7.20;;;;;;;25.29;25.49;92996.25;5056326;28;20190;-75
2022/05/21 10:51:38;;;;;;;7.10;6.80;;;;;;;25.45;24.91;92972.06;5028114;28;20234;-75
2022/05/21 10:54:26;;;;;;;7.22;6.72;;;;;;;25.48;24.89;92988.13;5027389;28;20226;-72
2022/05/21 10:57:21;;;;;;;7.40;7.10;;;;;;;25.39;22.40;92974.25;5027847;28;20241;-78
2022/05/21 10:59:55;;;;;;;6.60;6.30;;;;;;;25.60;24.69;92966.53;5027487;28;20209;-78
2022/05/21 11:02:58;;;;;;;7.63;7.22;;;;;;;25.64;24.95;92970.03;5027138;28;20253;-78
2022/05/21 11:05:45;;;;;;;7.90;7.50;;;;;;;25.68;25.96;92959.38;5028700;28;20240;-83
2022/05/21 11:08:14;;;;;;;6.82;6.53;;;;;;;25.78;24.10;92962.19;5029500;28;20198;-76
2022/05/21 11:10:49;;;;;;;7.30;7.00;;;;;;;25.80;25.99;92959.13;5028849;28;20226;-79
2022/05/21 11:13:23;;;;;;;8.13;7.63;;;;;;;25.81;25.69;92952.66;5029602;28;20241;-77
2022/05/21 11:15:57;;;;;;;7.45;7.15;;;;;;;25.83;25.70;92943.13;5052869;28;20232;-81
2022/05/21 11:18:44;;;;;;;8.05;7.55;;;;;;;25.95;24.37;92931.41;5029023;28;20194;-77
2022/05/21 11:21:18;;;;;;;7.70;7.28;;;;;;;25.92;24.64;92916.88;5052129;28;20348;-81
2022/05/21 11:23:54;;;;;;;7.45;7.00;;;;;;;25.74;24.34;92917.78;5027321;28;20281;-77
2022/05/21 11:26:47;;;;;;;7.93;7.43;;;;;;;25.86;25.04;92923.69;5027654;28;20234;-79
2022/05/21 11:29:58;;;;;;;7.50;7.10;;;;;;;25.78;24.99;92916.69;5028999;28;20202;-78
2022/05/21 11:38:21;;;;;;;7.60;7.30;;;;;;;25.87;25.73;92906.47;5028236;28;20297;-79
2022/05/21 11:47:18;;;;;;;7.57;7.18;;;;;;;26.07;25.50;92891.81;5027923;28;20248;-73
2022/05/21 11:49:56;;;;;;;7.30;7.00;;;;;;;26.21;26.72;92891.22;5027745;28;20194;-74
2022/05/21 11:52:27;;;;;;;6.95;6.63;;;;;;;26.18;25.22;92900.72;5028371;28;20237;-73
2022/05/21 11:55:10;;;;;;;7.68;7.28;;;;;;;26.21;27.86;92891.94;5028629;28;20911;-74
2022/05/21 11:57:54;;;;;;;7.20;6.80;;;;;;;25.77;26.36;92883.06;5026824;28;20223;-74
2022/05/21 12:00:25;;;;;;;7.93;7.40;;;;;;;26.20;26.82;92895.00;5027685;28;20253;-78
2022/05/21 12:02:53;;;;;;;7.15;6.85;;;;;;;26.32;26.88;92890.16;5028320;28;20241;-75
2022/05/21 12:08:14;;;;;;;7.18;6.75;;;;;;;26.23;25.96;92867.50;5029028;28;20199;-77
2022/05/21 12:11:04;;;;;;;7.60;7.22;;;;;;;26.49;26.33;92873.47;5028006;28;20211;-79
2022/05/21 12:13:58;;;;;;;7.15;6.75;;;;;;;26.46;27.88;92876.13;5028660;28;20200;-78
2022/05/21 12:16:24;;;;;;;7.57;7.05;;;;;;;26.52;27.33;92880.75;5025177;28;20310;-78
2022/05/21 12:18:51;;;;;;;7.35;7.05;;;;;;;26.51;27.59;92884.59;5028651;28;20225;-78
2022/05/21 12:21:36;;;;;;;7.50;7.13;;;;;;;26.63;27.20;92884.31;5026561;28;20245;-78